createdAt,value
2022-08-20T00:01:01.811Z,66.19
2022-08-20T00:03:35.845Z,65.66
2022-08-20T00:06:09.056Z,65.22
2022-08-20T00:08:37.613Z,65.18
2022-08-20T00:11:07.548Z,64.81
2022-08-20T00:13:40.968Z,64.51
2022-08-20T00:16:09.520Z,64.07
2022-08-20T00:18:37.887Z,63.84
2022-08-20T00:21:19.125Z,63.43
2022-08-20T00:23:49.589Z,63.04
2022-08-20T00:26:18.617Z,62.68
2022-08-20T00:28:46.150Z,62.43
2022-08-20T00:31:17.159Z,62.30
2022-08-20T00:33:45.189Z,62.28
2022-08-20T00:36:12.851Z,62.24
2022-08-20T00:38:43.083Z,62.20
2022-08-20T00:41:14.536Z,62.36
2022-08-20T00:43:52.234Z,62.56
2022-08-20T00:46:31.309Z,62.52
2022-08-20T00:49:02.597Z,62.42
2022-08-20T00:51:42.653Z,62.53
2022-08-20T00:54:16.277Z,62.57
2022-08-20T00:56:47.308Z,62.57
2022-08-20T00:59:18.945Z,62.86
2022-08-20T01:01:55.822Z,62.82
2022-08-20T01:04:29.216Z,62.37
2022-08-20T01:06:56.642Z,62.47
2022-08-20T01:09:50.067Z,62.63
2022-08-20T01:12:13.784Z,62.71
2022-08-20T01:14:45.551Z,62.90
2022-08-20T01:17:18.865Z,62.74
2022-08-20T01:20:02.023Z,63.08
2022-08-20T01:23:44.346Z,63.08
2022-08-20T01:26:19.510Z,63.18
2022-08-20T01:28:58.930Z,63.37
2022-08-20T01:31:29.833Z,63.37
2022-08-20T01:33:59.118Z,63.20
2022-08-20T01:36:45.937Z,63.58
2022-08-20T01:39:26.108Z,63.46
2022-08-20T01:42:08.931Z,63.46
2022-08-20T01:44:38.853Z,63.42
2022-08-20T01:47:38.593Z,63.52
2022-08-20T01:50:27.864Z,63.46
2022-08-20T01:53:14.405Z,63.40
2022-08-20T01:55:41.882Z,63.07
2022-08-20T01:58:09.319Z,63.23
2022-08-20T02:00:37.127Z,62.94
2022-08-20T02:03:05.003Z,62.91
2022-08-20T02:05:33.714Z,62.67
2022-08-20T02:08:02.272Z,62.43
2022-08-20T02:10:31.898Z,62.53
2022-08-20T02:13:01.281Z,62.17
2022-08-20T02:15:48.592Z,62.33
2022-08-20T02:18:17.299Z,62.28
2022-08-20T02:20:45.629Z,62.57
2022-08-20T02:23:13.293Z,62.57
2022-08-20T02:25:44.100Z,62.80
2022-08-20T02:28:13.257Z,62.51
2022-08-20T02:30:45.410Z,62.55
2022-08-20T02:33:16.267Z,62.73
2022-08-20T02:35:47.354Z,62.70
2022-08-20T02:38:16.019Z,62.26
2022-08-20T02:40:45.179Z,62.20
2022-08-20T02:43:13.292Z,62.27
2022-08-20T02:45:44.132Z,62.13
2022-08-20T02:48:21.104Z,62.21
2022-08-20T02:50:57.625Z,61.97
2022-08-20T02:53:27.092Z,61.75
2022-08-20T02:55:54.420Z,61.68
2022-08-20T02:58:22.732Z,61.42
2022-08-20T03:00:50.620Z,61.77
2022-08-20T03:03:22.903Z,61.99
2022-08-20T03:05:57.643Z,61.94
2022-08-20T03:08:27.778Z,61.68
2022-08-20T03:10:55.578Z,61.48
2022-08-20T03:13:23.690Z,61.04
2022-08-20T03:15:58.837Z,61.04
2022-08-20T03:18:31.875Z,60.60
2022-08-20T03:20:59.479Z,60.88
2022-08-20T03:23:26.861Z,60.82
2022-08-20T03:25:54.152Z,61.20
2022-08-20T03:28:21.512Z,61.27
2022-08-20T03:30:49.133Z,61.19
2022-08-20T03:33:16.679Z,61.21
2022-08-20T03:35:44.226Z,60.92
2022-08-20T03:38:13.629Z,61.02
2022-08-20T03:40:42.855Z,60.68
2022-08-20T03:43:10.643Z,60.35
2022-08-20T03:45:40.664Z,60.28
2022-08-20T03:48:11.149Z,60.44
2022-08-20T03:50:42.662Z,60.42
2022-08-20T03:53:14.622Z,59.84
2022-08-20T03:55:45.622Z,59.76
2022-08-20T03:58:34.726Z,59.67
2022-08-20T04:01:03.427Z,59.41
2022-08-20T04:03:31.010Z,59.62
2022-08-20T04:05:59.036Z,59.53
2022-08-20T04:08:29.619Z,59.25
2022-08-20T04:10:58.820Z,58.88
2022-08-20T04:13:28.176Z,58.65
2022-08-20T04:15:57.727Z,58.69
2022-08-20T04:18:26.640Z,58.92
2022-08-20T04:20:54.467Z,58.67
2022-08-20T04:23:22.751Z,58.64
2022-08-20T04:25:50.211Z,58.62
2022-08-20T04:28:27.596Z,58.52
2022-08-20T04:30:57.061Z,58.61
2022-08-20T04:33:33.963Z,58.40
2022-08-20T04:36:06.199Z,57.98
2022-08-20T04:38:49.817Z,57.93
2022-08-20T04:41:24.180Z,57.61
2022-08-20T04:43:56.342Z,57.23
2022-08-20T04:46:28.200Z,57.35
2022-08-20T04:48:57.042Z,57.59
2022-08-20T04:51:24.915Z,57.39
2022-08-20T04:53:54.293Z,57.50
2022-08-20T04:56:26.135Z,57.17
2022-08-20T04:58:55.757Z,56.68
2022-08-20T05:01:26.562Z,56.52
2022-08-20T05:03:55.098Z,56.72
2022-08-20T05:06:28.808Z,56.73
2022-08-20T05:08:58.168Z,56.67
2022-08-20T05:11:36.068Z,56.65
2022-08-20T05:14:09.640Z,56.01
2022-08-20T05:16:41.310Z,56.54
2022-08-20T05:19:11.534Z,56.23
2022-08-20T05:21:41.862Z,56.31
2022-08-20T05:24:10.329Z,56.43
2022-08-20T05:26:38.351Z,56.20
2022-08-20T05:29:07.143Z,56.22
2022-08-20T05:31:35.115Z,56.00
2022-08-20T05:34:10.743Z,55.98
2022-08-20T05:36:47.016Z,55.86
2022-08-20T05:39:19.445Z,55.52
2022-08-20T05:41:46.946Z,55.50
2022-08-20T05:44:15.192Z,55.02
2022-08-20T05:46:44.414Z,54.65
2022-08-20T05:49:15.955Z,54.04
2022-08-20T05:51:44.241Z,54.21
2022-08-20T05:54:12.649Z,54.24
2022-08-20T05:56:40.059Z,53.91
2022-08-20T05:59:09.630Z,53.80
2022-08-20T06:01:39.575Z,53.56
2022-08-20T06:04:28.507Z,53.19
2022-08-20T06:07:04.931Z,53.21
2022-08-20T06:09:35.433Z,53.21
2022-08-20T06:12:06.281Z,53.12
2022-08-20T06:14:35.200Z,52.87
2022-08-20T06:17:08.830Z,53.48
2022-08-20T06:19:39.431Z,53.29
2022-08-20T06:22:18.230Z,53.17
2022-08-20T06:24:49.250Z,52.95
2022-08-20T06:27:20.858Z,53.00
2022-08-20T06:29:49.024Z,52.64
2022-08-20T06:32:18.447Z,52.91
2022-08-20T06:34:50.907Z,53.09
2022-08-20T06:37:20.716Z,52.53
2022-08-20T06:39:48.067Z,52.91
2022-08-20T06:42:20.657Z,52.76
2022-08-20T06:44:50.531Z,52.54
2022-08-20T06:47:20.074Z,52.93
2022-08-20T06:49:49.194Z,53.49
2022-08-20T06:52:17.510Z,53.92
2022-08-20T06:54:47.065Z,53.94
2022-08-20T06:57:15.011Z,53.75
2022-08-20T06:59:42.272Z,53.72
2022-08-20T07:02:09.534Z,54.13
2022-08-20T07:04:37.706Z,53.85
2022-08-20T07:07:15.688Z,53.84
2022-08-20T07:09:42.923Z,54.35
2022-08-20T07:12:10.864Z,54.53
2022-08-20T07:14:38.419Z,54.61
2022-08-20T07:17:09.688Z,54.54
2022-08-20T07:19:39.491Z,54.83
2022-08-20T07:22:07.282Z,54.86
2022-08-20T07:24:37.864Z,54.48
2022-08-20T07:27:08.039Z,54.28
2022-08-20T07:29:53.791Z,53.82
2022-08-20T07:32:39.449Z,53.96
2022-08-20T07:35:10.173Z,53.90
2022-08-20T07:37:42.128Z,53.86
2022-08-20T07:40:15.643Z,53.84
2022-08-20T07:42:43.038Z,54.01
2022-08-20T07:45:13.558Z,54.26
2022-08-20T07:47:43.114Z,54.93
2022-08-20T07:50:13.720Z,54.82
2022-08-20T07:52:41.168Z,55.30
2022-08-20T07:55:11.549Z,56.52
2022-08-20T07:57:39.297Z,56.03
2022-08-20T08:00:09.125Z,55.71
2022-08-20T08:02:36.891Z,56.80
2022-08-20T08:05:08.004Z,58.51
2022-08-20T08:07:36.895Z,58.21
2022-08-20T08:10:07.735Z,58.19
2022-08-20T08:12:47.854Z,57.53
2022-08-20T08:15:18.174Z,57.74
2022-08-20T08:17:48.925Z,57.98
2022-08-20T08:20:17.351Z,57.61
2022-08-20T08:22:44.709Z,58.09
2022-08-20T08:25:13.446Z,58.29
2022-08-20T08:27:41.456Z,58.43
2022-08-20T08:30:10.231Z,58.39
2022-08-20T08:32:58.805Z,58.35
2022-08-20T08:35:26.955Z,58.62
2022-08-20T08:37:54.735Z,57.99
2022-08-20T08:40:22.739Z,58.79
2022-08-20T08:42:58.230Z,58.62
2022-08-20T08:45:38.182Z,60.46
2022-08-20T08:48:05.885Z,60.43
2022-08-20T08:50:53.282Z,61.14
2022-08-20T08:53:25.507Z,62.51
2022-08-20T08:55:53.189Z,63.43
2022-08-20T08:58:20.448Z,64.13
2022-08-20T09:00:56.048Z,65.08
2022-08-20T09:03:29.472Z,66.43
2022-08-20T09:06:00.215Z,67.20
2022-08-20T09:08:33.842Z,68.24
2022-08-20T09:11:02.873Z,68.87
2022-08-20T09:13:30.276Z,69.28
2022-08-20T09:15:57.594Z,69.05
2022-08-20T09:18:25.020Z,69.40
2022-08-20T09:20:52.841Z,69.17
2022-08-20T09:23:20.157Z,68.11
2022-08-20T09:25:48.272Z,68.09
2022-08-20T09:28:15.669Z,67.72
2022-08-20T09:30:43.238Z,68.30
2022-08-20T09:33:12.231Z,67.44
2022-08-20T09:35:40.510Z,66.85
2022-08-20T09:38:08.605Z,66.23
2022-08-20T09:40:35.909Z,65.37
2022-08-20T09:43:06.353Z,64.75
2022-08-20T09:45:34.924Z,64.72
2022-08-20T09:48:02.622Z,64.92
2022-08-20T09:50:32.753Z,64.84
2022-08-20T09:53:02.652Z,64.57
2022-08-20T09:55:39.016Z,65.25
2022-08-20T09:58:26.470Z,65.12
2022-08-20T10:00:53.788Z,64.09
2022-08-20T10:03:21.192Z,63.52
2022-08-20T10:05:48.807Z,62.84
2022-08-20T10:08:16.182Z,63.20
2022-08-20T10:10:43.814Z,62.87
2022-08-20T10:13:13.257Z,62.80
2022-08-20T10:15:42.844Z,63.23
2022-08-20T10:18:12.291Z,62.93
2022-08-20T10:20:40.696Z,62.90
2022-08-20T10:23:08.355Z,62.39
2022-08-20T10:25:35.836Z,62.80
2022-08-20T10:28:04.417Z,62.71
2022-08-20T10:30:31.945Z,62.65
2022-08-20T10:32:59.230Z,63.33
2022-08-20T10:35:27.099Z,62.95
2022-08-20T10:37:54.559Z,63.24
2022-08-20T10:40:21.989Z,63.93
2022-08-20T10:42:49.381Z,64.23
2022-08-20T10:45:17.247Z,64.46
2022-08-20T10:47:45.257Z,64.41
2022-08-20T10:50:16.020Z,65.24
2022-08-20T10:52:44.020Z,65.54
2022-08-20T10:55:11.441Z,65.28
2022-08-20T10:57:41.123Z,66.01
2022-08-20T11:00:10.703Z,65.62
2022-08-20T11:02:38.241Z,65.11
2022-08-20T11:05:07.270Z,64.79
2022-08-20T11:07:55.109Z,65.29
2022-08-20T11:10:34.241Z,65.23
2022-08-20T11:13:03.299Z,65.20
2022-08-20T11:15:30.737Z,64.78
2022-08-20T11:17:58.190Z,64.45
2022-08-20T11:20:26.769Z,64.74
2022-08-20T11:22:55.140Z,64.19
2022-08-20T11:25:22.522Z,64.21
2022-08-20T11:27:51.489Z,64.04
2022-08-20T11:30:32.304Z,64.45
2022-08-20T11:33:00.965Z,64.62
2022-08-20T11:35:48.939Z,64.10
2022-08-20T11:38:18.160Z,64.19
2022-08-20T11:40:47.112Z,64.44
2022-08-20T11:43:16.709Z,64.56
2022-08-20T11:45:57.563Z,65.54
2022-08-20T11:48:24.996Z,65.53
2022-08-20T11:50:52.525Z,66.25
2022-08-20T11:53:20.004Z,66.45
2022-08-20T11:55:49.137Z,66.52
2022-08-20T11:58:16.839Z,66.84
2022-08-20T12:00:44.562Z,65.84
2022-08-20T12:03:12.217Z,65.98
2022-08-20T12:05:42.420Z,66.34
2022-08-20T12:08:10.279Z,66.14
2022-08-20T12:10:52.703Z,65.92
2022-08-20T12:13:19.943Z,66.65
2022-08-20T12:15:50.976Z,67.39
2022-08-20T12:18:18.143Z,67.85
2022-08-20T12:20:45.597Z,68.00
2022-08-20T12:23:14.340Z,68.03
2022-08-20T12:25:41.808Z,68.20
2022-08-20T12:28:09.082Z,68.14
2022-08-20T12:30:37.025Z,68.00
2022-08-20T12:33:04.668Z,68.08
2022-08-20T12:35:32.665Z,67.85
2022-08-20T12:38:05.714Z,67.54
2022-08-20T12:40:34.566Z,67.31
2022-08-20T12:43:03.092Z,66.93
2022-08-20T12:45:31.783Z,66.15
2022-08-20T12:48:11.445Z,66.16
2022-08-20T12:50:42.786Z,65.78
2022-08-20T12:53:11.084Z,65.50
2022-08-20T12:55:38.522Z,65.17
2022-08-20T12:58:09.480Z,64.83
2022-08-20T13:00:43.623Z,64.27
2022-08-20T13:03:13.154Z,64.29
2022-08-20T13:05:42.450Z,64.26
2022-08-20T13:08:12.737Z,64.16
2022-08-20T13:10:44.603Z,64.19
2022-08-20T13:13:13.487Z,64.45
2022-08-20T13:15:41.252Z,64.56
2022-08-20T13:18:09.352Z,64.90
2022-08-20T13:20:37.571Z,65.21
2022-08-20T13:23:05.579Z,65.51
2022-08-20T13:25:34.104Z,66.01
2022-08-20T13:28:04.717Z,65.62
2022-08-20T13:30:35.501Z,66.19
2022-08-20T13:33:03.816Z,66.26
2022-08-20T13:35:31.525Z,66.11
2022-08-20T13:37:58.767Z,66.32
2022-08-20T13:40:26.583Z,66.44
2022-08-20T13:42:53.963Z,66.41
2022-08-20T13:45:21.570Z,66.16
2022-08-20T13:47:53.538Z,66.20
2022-08-20T13:50:23.662Z,66.60
2022-08-20T13:52:51.055Z,66.24
2022-08-20T13:55:23.136Z,66.18
2022-08-20T13:57:51.599Z,65.67
2022-08-20T14:00:31.686Z,65.85
2022-08-20T14:03:04.971Z,65.97
2022-08-20T14:05:33.393Z,65.95
2022-08-20T14:08:09.144Z,65.28
2022-08-20T14:10:37.855Z,65.46
2022-08-20T14:13:07.222Z,65.07
2022-08-20T14:15:36.053Z,65.13
2022-08-20T14:18:05.008Z,64.98
2022-08-20T14:20:34.566Z,64.76
2022-08-20T14:23:06.186Z,64.62
2022-08-20T14:25:34.233Z,64.69
2022-08-20T14:28:11.254Z,64.74
2022-08-20T14:30:38.791Z,64.83
2022-08-20T14:33:06.124Z,64.91
2022-08-20T14:35:34.347Z,65.11
2022-08-20T14:38:02.804Z,65.26
2022-08-20T14:40:33.738Z,65.24
2022-08-20T14:43:01.350Z,65.55
2022-08-20T14:45:29.398Z,65.46
2022-08-20T14:47:58.442Z,65.67
2022-08-20T14:50:32.987Z,65.43
2022-08-20T14:53:01.035Z,65.10
2022-08-20T14:55:33.778Z,65.18
2022-08-20T14:58:00.990Z,65.29
2022-08-20T15:00:31.175Z,65.32
2022-08-20T15:02:58.719Z,64.98
2022-08-20T15:05:27.074Z,65.36
2022-08-20T15:07:56.697Z,64.74
2022-08-20T15:10:27.330Z,64.57
2022-08-20T15:12:55.071Z,64.77
2022-08-20T15:15:23.901Z,64.87
2022-08-20T15:17:56.353Z,65.16
2022-08-20T15:20:27.453Z,65.25
2022-08-20T15:22:55.379Z,65.14
2022-08-20T15:25:25.382Z,65.48
2022-08-20T15:27:59.286Z,65.18
2022-08-20T15:30:31.391Z,65.22
2022-08-20T15:32:59.002Z,65.43
2022-08-20T15:35:28.451Z,65.60
2022-08-20T15:37:58.318Z,65.41
2022-08-20T15:40:29.071Z,65.44
2022-08-20T15:42:58.517Z,65.53
2022-08-20T15:45:26.437Z,65.71
2022-08-20T15:48:15.829Z,65.56
2022-08-20T15:51:20.376Z,65.35
2022-08-20T15:54:09.617Z,65.57
2022-08-20T15:56:59.129Z,65.55
2022-08-20T15:59:39.458Z,65.46
2022-08-20T16:02:41.038Z,65.70
2022-08-20T16:05:30.237Z,65.79
2022-08-20T16:08:15.892Z,65.98
2022-08-20T16:11:07.983Z,66.29
2022-08-20T16:13:44.906Z,66.23
2022-08-20T16:16:31.455Z,66.07
2022-08-20T16:19:01.288Z,66.45
2022-08-20T16:21:37.772Z,66.42
2022-08-20T16:24:07.260Z,66.43
2022-08-20T16:27:01.572Z,66.61
2022-08-20T16:29:45.692Z,66.84
2022-08-20T16:32:19.334Z,66.74
2022-08-20T16:34:56.894Z,66.91
2022-08-20T16:37:34.813Z,66.77
2022-08-20T16:40:18.570Z,66.86
2022-08-20T16:42:51.689Z,66.69
2022-08-20T16:45:25.334Z,66.41
2022-08-20T16:47:58.668Z,66.50
2022-08-20T16:50:34.522Z,66.64
2022-08-20T16:53:01.987Z,66.85
2022-08-20T16:55:29.703Z,66.88
2022-08-20T16:57:56.960Z,66.89
2022-08-20T17:00:42.543Z,67.06
2022-08-20T17:03:33.576Z,67.08
2022-08-20T17:06:37.497Z,67.30
2022-08-20T17:09:14.672Z,67.26
2022-08-20T17:11:47.880Z,67.26
2022-08-20T17:14:18.471Z,67.36
2022-08-20T17:16:52.625Z,67.33
2022-08-20T17:19:31.872Z,67.12
2022-08-20T17:22:15.238Z,67.35
2022-08-20T17:24:42.884Z,67.03
2022-08-20T17:27:15.226Z,67.23
2022-08-20T17:29:55.605Z,67.36
2022-08-20T17:32:27.308Z,67.37
2022-08-20T17:35:01.200Z,67.54
2022-08-20T17:37:37.395Z,67.86
2022-08-20T17:40:28.782Z,67.60
2022-08-20T17:43:06.228Z,67.81
2022-08-20T17:45:44.905Z,67.54
2022-08-20T17:48:27.751Z,67.58
2022-08-20T17:50:55.214Z,67.33
2022-08-20T17:53:38.612Z,67.70
2022-08-20T17:56:20.812Z,67.03
2022-08-20T17:58:54.450Z,67.20
2022-08-20T18:01:24.089Z,67.08
2022-08-20T18:03:53.430Z,66.91
2022-08-20T18:06:48.863Z,66.88
2022-08-20T18:09:36.940Z,66.65
2022-08-20T18:12:07.475Z,66.46
2022-08-20T18:15:01.340Z,66.49
2022-08-20T18:18:08.374Z,66.34
2022-08-20T18:20:54.244Z,66.25
2022-08-20T18:23:30.726Z,66.23
2022-08-20T18:26:06.395Z,65.92
2022-08-20T18:28:54.722Z,65.93
2022-08-20T18:31:44.509Z,65.53
2022-08-20T18:34:19.024Z,65.56
2022-08-20T19:38:32.740Z,60.86
2022-08-20T19:41:11.027Z,60.31
2022-08-20T19:43:44.523Z,59.05
2022-08-20T19:46:13.539Z,59.42
2022-08-20T19:49:15.995Z,58.30
2022-08-20T19:52:24.390Z,57.78
2022-08-20T19:54:54.722Z,56.55
2022-08-20T19:57:25.340Z,55.13
2022-08-20T20:00:08.853Z,54.98
2022-08-20T20:02:36.414Z,55.13
2022-08-20T20:05:08.773Z,54.12
2022-08-20T20:07:40.651Z,54.97
2022-08-20T20:10:10.936Z,54.15
2022-08-20T20:12:39.144Z,54.04
2022-08-20T20:15:08.153Z,53.37
2022-08-20T20:17:37.130Z,53.20
2022-08-20T20:20:28.734Z,53.09
2022-08-20T20:23:06.644Z,53.08
2022-08-20T20:25:34.529Z,52.86
2022-08-20T20:28:18.097Z,51.82
2022-08-20T20:30:47.097Z,52.38
2022-08-20T20:33:24.061Z,51.32
2022-08-20T20:36:18.784Z,51.96
2022-08-20T20:39:00.760Z,51.08
2022-08-20T20:41:29.933Z,51.47
2022-08-20T20:44:35.203Z,50.71
2022-08-20T20:47:09.449Z,50.33
2022-08-20T20:49:57.186Z,50.47
2022-08-20T20:52:38.344Z,50.73
2022-08-20T20:55:14.771Z,50.49
2022-08-20T20:57:42.371Z,49.85
2022-08-20T21:00:17.605Z,49.99
2022-08-20T21:02:46.189Z,49.34
2022-08-20T21:05:15.383Z,50.10
2022-08-20T21:07:50.547Z,48.69
2022-08-20T21:10:21.617Z,48.88
2022-08-20T21:12:52.908Z,50.28
2022-08-20T21:15:23.064Z,50.00
2022-08-20T21:17:52.225Z,49.09
2022-08-20T21:20:23.500Z,48.56
2022-08-20T21:22:50.880Z,48.79
2022-08-20T21:25:19.078Z,47.89
2022-08-20T21:27:49.647Z,48.10
2022-08-20T21:30:18.258Z,48.50
2022-08-20T21:32:45.674Z,48.38
2022-08-20T21:35:13.676Z,48.64
2022-08-20T21:37:40.969Z,46.73
2022-08-20T21:40:09.929Z,47.58
2022-08-20T21:42:40.183Z,47.78
2022-08-20T21:45:10.284Z,47.34
2022-08-20T21:47:37.708Z,47.90
2022-08-20T21:50:06.189Z,47.99
2022-08-20T21:52:35.457Z,47.73
2022-08-20T21:55:02.757Z,47.65
2022-08-20T21:57:33.393Z,46.40
2022-08-20T22:00:04.856Z,46.48
2022-08-20T22:02:32.396Z,46.32
2022-08-20T22:04:59.932Z,46.20
2022-08-20T22:07:27.327Z,46.19
2022-08-20T22:09:55.486Z,45.52
2022-08-20T22:12:25.051Z,44.62
2022-08-20T22:14:53.175Z,45.82
2022-08-20T22:17:20.646Z,44.49
2022-08-20T22:19:48.229Z,45.46
2022-08-20T22:22:17.600Z,44.35
2022-08-20T22:24:45.850Z,44.92
2022-08-20T22:27:13.843Z,44.93
2022-08-20T22:29:41.232Z,44.13
2022-08-20T22:32:08.663Z,44.92
2022-08-20T22:34:36.452Z,44.34
2022-08-20T22:37:04.420Z,44.74
2022-08-20T22:39:31.873Z,43.97
2022-08-20T22:41:59.517Z,44.18
2022-08-20T22:44:27.119Z,44.47
2022-08-20T22:46:59.822Z,44.19
2022-08-20T22:49:31.543Z,43.10
2022-08-20T22:51:59.305Z,44.48
2022-08-20T22:54:28.078Z,44.72
2022-08-20T22:56:55.635Z,44.28
2022-08-20T22:59:23.469Z,44.26
2022-08-20T23:01:51.882Z,44.84
2022-08-20T23:04:29.980Z,43.43
2022-08-20T23:06:58.152Z,44.25
2022-08-20T23:09:26.290Z,44.21
2022-08-20T23:11:54.138Z,44.13
2022-08-20T23:14:21.673Z,43.21
2022-08-20T23:16:57.843Z,43.84
2022-08-20T23:19:25.048Z,44.43
2022-08-20T23:21:53.045Z,43.90
2022-08-20T23:24:20.573Z,43.35
2022-08-20T23:26:52.678Z,42.31
2022-08-20T23:29:25.481Z,42.91
2022-08-20T23:31:55.668Z,43.21
2022-08-20T23:34:23.989Z,42.32
2022-08-20T23:36:52.711Z,42.19
2022-08-20T23:39:20.835Z,42.78
2022-08-20T23:41:48.296Z,42.72
2022-08-20T23:44:26.521Z,42.36
2022-08-20T23:47:01.010Z,42.48
2022-08-20T23:49:29.637Z,42.89
2022-08-20T23:51:58.011Z,42.77
2022-08-20T23:54:25.299Z,42.98
2022-08-20T23:56:56.976Z,42.68
2022-08-20T23:59:24.660Z,42.75
